sensor_id;sensor_type;location;lat;lon;timestamp;pressure;altitude;pressure_sealevel;temperature;humidity
17373;BME280;8803;48.116;11.590;2024-03-08T00:03:04;95476.06;;;4.92;78.68
17373;BME280;8803;48.116;11.590;2024-03-08T00:07:24;95472.84;;;4.94;78.66
17373;BME280;8803;48.116;11.590;2024-03-08T00:11:45;95470.73;;;4.73;78.30
17373;BME280;8803;48.116;11.590;2024-03-08T00:16:06;95472.61;;;4.97;77.65
17373;BME280;8803;48.116;11.590;2024-03-08T00:18:15;95470.83;;;4.97;77.44
17373;BME280;8803;48.116;11.590;2024-03-08T00:22:36;95469.25;;;4.82;77.51
17373;BME280;8803;48.116;11.590;2024-03-08T00:24:43;95474.53;;;4.82;77.56
17373;BME280;8803;48.116;11.590;2024-03-08T00:29:02;95470.09;;;4.52;78.10
17373;BME280;8803;48.116;11.590;2024-03-08T00:33:21;95465.23;;;4.58;78.39
17373;BME280;8803;48.116;11.590;2024-03-08T00:37:42;95461.64;;;4.47;79.19
17373;BME280;8803;48.116;11.590;2024-03-08T00:42:02;95458.73;;;4.32;80.19
17373;BME280;8803;48.116;11.590;2024-03-08T00:46:24;95445.98;;;4.51;78.89
17373;BME280;8803;48.116;11.590;2024-03-08T00:48:29;95451.95;;;4.47;78.93
17373;BME280;8803;48.116;11.590;2024-03-08T00:50:37;95442.59;;;4.61;78.68
17373;BME280;8803;48.116;11.590;2024-03-08T00:54:58;95433.50;;;4.35;79.31
17373;BME280;8803;48.116;11.590;2024-03-08T00:59:17;95433.65;;;4.51;79.13
17373;BME280;8803;48.116;11.590;2024-03-08T01:03:41;95425.59;;;4.47;78.62
17373;BME280;8803;48.116;11.590;2024-03-08T01:08:03;95421.68;;;4.28;79.23
17373;BME280;8803;48.116;11.590;2024-03-08T01:12:27;95416.67;;;4.55;78.47
17373;BME280;8803;48.116;11.590;2024-03-08T01:14:33;95417.69;;;4.22;79.02
17373;BME280;8803;48.116;11.590;2024-03-08T01:18:54;95421.27;;;3.76;81.75
17373;BME280;8803;48.116;11.590;2024-03-08T01:23:14;95421.48;;;3.66;82.65
17373;BME280;8803;48.116;11.590;2024-03-08T01:27:37;95425.11;;;3.78;82.54
17373;BME280;8803;48.116;11.590;2024-03-08T01:31:58;95416.03;;;3.30;84.39
17373;BME280;8803;48.116;11.590;2024-03-08T01:36:20;95395.52;;;3.55;83.73
17373;BME280;8803;48.116;11.590;2024-03-08T01:38:30;95391.90;;;3.82;82.66
17373;BME280;8803;48.116;11.590;2024-03-08T01:43:22;95381.30;;;4.02;81.62
17373;BME280;8803;48.116;11.590;2024-03-08T01:47:43;95387.54;;;4.01;81.45
17373;BME280;8803;48.116;11.590;2024-03-08T01:52:07;95367.94;;;4.05;80.61
17373;BME280;8803;48.116;11.590;2024-03-08T01:54:15;95373.70;;;3.85;81.31
17373;BME280;8803;48.116;11.590;2024-03-08T01:58:41;95367.36;;;4.20;80.76
17373;BME280;8803;48.116;11.590;2024-03-08T02:02:59;95361.67;;;4.00;80.89
17373;BME280;8803;48.116;11.590;2024-03-08T02:07:23;95355.05;;;4.08;80.78
17373;BME280;8803;48.116;11.590;2024-03-08T02:11:43;95348.66;;;3.60;82.85
17373;BME280;8803;48.116;11.590;2024-03-08T02:16:07;95346.40;;;3.48;83.89
17373;BME280;8803;48.116;11.590;2024-03-08T02:20:29;95341.59;;;3.67;82.80
17373;BME280;8803;48.116;11.590;2024-03-08T02:24:52;95342.93;;;3.08;86.20
17373;BME280;8803;48.116;11.590;2024-03-08T02:29:11;95343.53;;;2.92;87.63
17373;BME280;8803;48.116;11.590;2024-03-08T02:33:35;95342.14;;;2.94;87.75
17373;BME280;8803;48.116;11.590;2024-03-08T02:37:53;95342.95;;;3.01;87.88
17373;BME280;8803;48.116;11.590;2024-03-08T02:42:12;95340.38;;;2.87;88.41
17373;BME280;8803;48.116;11.590;2024-03-08T02:46:33;95339.63;;;2.85;89.03
17373;BME280;8803;48.116;11.590;2024-03-08T02:48:41;95341.88;;;2.84;88.67
17373;BME280;8803;48.116;11.590;2024-03-08T02:53:02;95347.64;;;2.70;89.70
17373;BME280;8803;48.116;11.590;2024-03-08T02:57:21;95337.41;;;2.79;89.44
17373;BME280;8803;48.116;11.590;2024-03-08T03:01:43;95326.89;;;2.79;89.61
17373;BME280;8803;48.116;11.590;2024-03-08T03:06:04;95330.50;;;2.57;90.76
17373;BME280;8803;48.116;11.590;2024-03-08T03:10:27;95334.47;;;2.36;92.70
17373;BME280;8803;48.116;11.590;2024-03-08T03:12:33;95333.02;;;2.25;93.60
17373;BME280;8803;48.116;11.590;2024-03-08T03:14:39;95335.33;;;2.29;93.53
17373;BME280;8803;48.116;11.590;2024-03-08T03:18:56;95324.84;;;2.63;92.84
17373;BME280;8803;48.116;11.590;2024-03-08T03:23:17;95321.63;;;2.46;93.22
17373;BME280;8803;48.116;11.590;2024-03-08T03:27:38;95316.48;;;2.37;93.23
17373;BME280;8803;48.116;11.590;2024-03-08T03:32:00;95317.83;;;2.57;92.00
17373;BME280;8803;48.116;11.590;2024-03-08T03:36:21;95322.87;;;2.33;93.84
17373;BME280;8803;48.116;11.590;2024-03-08T03:38:29;95319.98;;;2.09;94.81
17373;BME280;8803;48.116;11.590;2024-03-08T03:40:35;95321.95;;;1.99;96.20
17373;BME280;8803;48.116;11.590;2024-03-08T03:44:56;95327.16;;;2.34;94.76
17373;BME280;8803;48.116;11.590;2024-03-08T03:49:17;95314.31;;;2.29;95.48
17373;BME280;8803;48.116;11.590;2024-03-08T03:53:34;95310.73;;;2.45;94.56
17373;BME280;8803;48.116;11.590;2024-03-08T03:57:54;95309.70;;;2.74;91.39
17373;BME280;8803;48.116;11.590;2024-03-08T04:02:16;95300.05;;;2.74;92.18
17373;BME280;8803;48.116;11.590;2024-03-08T04:04:25;95299.81;;;3.11;89.21
17373;BME280;8803;48.116;11.590;2024-03-08T04:06:31;95298.54;;;2.97;89.30
17373;BME280;8803;48.116;11.590;2024-03-08T04:10:51;95297.31;;;2.76;91.46
17373;BME280;8803;48.116;11.590;2024-03-08T04:15:13;95291.52;;;2.90;90.23
17373;BME280;8803;48.116;11.590;2024-03-08T04:17:19;95301.23;;;2.56;92.02
17373;BME280;8803;48.116;11.590;2024-03-08T04:21:36;95298.27;;;2.48;93.06
17373;BME280;8803;48.116;11.590;2024-03-08T04:25:54;95295.77;;;2.59;93.16
17373;BME280;8803;48.116;11.590;2024-03-08T04:30:16;95283.31;;;2.56;93.34
17373;BME280;8803;48.116;11.590;2024-03-08T04:32:24;95301.39;;;2.19;94.16
17373;BME280;8803;48.116;11.590;2024-03-08T04:36:47;95294.47;;;2.11;95.87
17373;BME280;8803;48.116;11.590;2024-03-08T04:41:07;95292.22;;;1.98;96.57
17373;BME280;8803;48.116;11.590;2024-03-08T04:45:28;95287.80;;;2.13;96.00
17373;BME280;8803;48.116;11.590;2024-03-08T04:49:48;95294.55;;;2.17;95.95
17373;BME280;8803;48.116;11.590;2024-03-08T04:54:10;95290.55;;;1.90;97.38
17373;BME280;8803;48.116;11.590;2024-03-08T04:56:16;95294.57;;;2.03;96.67
17373;BME280;8803;48.116;11.590;2024-03-08T04:58:25;95290.61;;;2.31;95.24
17373;BME280;8803;48.116;11.590;2024-03-08T05:02:47;95283.86;;;2.13;96.44
17373;BME280;8803;48.116;11.590;2024-03-08T05:07:06;95280.11;;;2.17;96.10
17373;BME280;8803;48.116;11.590;2024-03-08T05:11:26;95286.52;;;1.78;98.46
17373;BME280;8803;48.116;11.590;2024-03-08T05:15:50;95284.91;;;1.54;100.00
17373;BME280;8803;48.116;11.590;2024-03-08T05:20:17;95287.44;;;1.98;98.37
17373;BME280;8803;48.116;11.590;2024-03-08T05:22:25;95289.71;;;2.04;97.82
17373;BME280;8803;48.116;11.590;2024-03-08T05:26:43;95270.77;;;2.06;97.32
17373;BME280;8803;48.116;11.590;2024-03-08T05:31:02;95283.89;;;1.71;99.83
17373;BME280;8803;48.116;11.590;2024-03-08T05:35:23;95269.06;;;2.12;98.63
17373;BME280;8803;48.116;11.590;2024-03-08T05:39:43;95267.64;;;2.06;98.60
17373;BME280;8803;48.116;11.590;2024-03-08T05:44:03;95266.27;;;1.73;100.00
17373;BME280;8803;48.116;11.590;2024-03-08T05:48:21;95267.41;;;1.62;100.00
17373;BME280;8803;48.116;11.590;2024-03-08T05:52:45;95264.41;;;1.68;100.00
17373;BME280;8803;48.116;11.590;2024-03-08T05:57:06;95274.63;;;1.72;100.00
17373;BME280;8803;48.116;11.590;2024-03-08T06:01:25;95269.84;;;1.50;100.00
17373;BME280;8803;48.116;11.590;2024-03-08T06:05:44;95219.61;;;1.49;100.00
17373;BME280;8803;48.116;11.590;2024-03-08T06:10:08;95260.85;;;1.83;100.00
17373;BME280;8803;48.116;11.590;2024-03-08T06:12:17;95267.39;;;1.97;100.00
17373;BME280;8803;48.116;11.590;2024-03-08T06:14:22;95267.85;;;1.96;100.00
17373;BME280;8803;48.116;11.590;2024-03-08T06:18:43;95253.09;;;2.29;98.11
17373;BME280;8803;48.116;11.590;2024-03-08T06:20:52;95259.87;;;2.12;99.54
17373;BME280;8803;48.116;11.590;2024-03-08T06:25:13;95255.48;;;2.05;99.78
17373;BME280;8803;48.116;11.590;2024-03-08T06:29:32;95254.91;;;2.14;99.44
17373;BME280;8803;48.116;11.590;2024-03-08T06:33:53;95261.96;;;1.93;100.00
17373;BME280;8803;48.116;11.590;2024-03-08T06:38:13;95262.58;;;2.17;100.00
17373;BME280;8803;48.116;11.590;2024-03-08T06:40:20;95274.14;;;2.08;100.00
17373;BME280;8803;48.116;11.590;2024-03-08T06:44:40;95265.59;;;2.52;99.36
17373;BME280;8803;48.116;11.590;2024-03-08T06:49:02;95259.38;;;2.19;98.06
17373;BME280;8803;48.116;11.590;2024-03-08T06:53:23;95270.22;;;1.87;100.00
17373;BME280;8803;48.116;11.590;2024-03-08T06:57:44;95270.06;;;2.23;99.18
17373;BME280;8803;48.116;11.590;2024-03-08T07:02:07;95264.05;;;2.35;98.22
17373;BME280;8803;48.116;11.590;2024-03-08T07:06:28;95262.58;;;2.51;97.59
17373;BME280;8803;48.116;11.590;2024-03-08T07:10:50;95261.95;;;2.40;96.69
17373;BME280;8803;48.116;11.590;2024-03-08T07:15:11;95264.91;;;2.29;98.68
17373;BME280;8803;48.116;11.590;2024-03-08T07:17:21;95268.17;;;2.32;98.47
17373;BME280;8803;48.116;11.590;2024-03-08T07:21:43;95261.36;;;2.23;98.68
17373;BME280;8803;48.116;11.590;2024-03-08T07:26:06;95252.06;;;2.58;98.00
17373;BME280;8803;48.116;11.590;2024-03-08T07:32:41;95248.02;;;2.53;97.86
17373;BME280;8803;48.116;11.590;2024-03-08T07:37:02;95245.59;;;2.76;96.71
17373;BME280;8803;48.116;11.590;2024-03-08T07:41:21;95246.37;;;2.91;94.22
17373;BME280;8803;48.116;11.590;2024-03-08T07:45:39;95238.89;;;2.85;95.50
17373;BME280;8803;48.116;11.590;2024-03-08T07:50:09;95236.70;;;2.91;94.04
17373;BME280;8803;48.116;11.590;2024-03-08T07:54:32;95231.45;;;3.24;93.56
17373;BME280;8803;48.116;11.590;2024-03-08T07:58:51;95226.28;;;3.60;91.90
17373;BME280;8803;48.116;11.590;2024-03-08T08:03:14;95219.80;;;4.14;87.71
17373;BME280;8803;48.116;11.590;2024-03-08T08:07:37;95222.44;;;4.14;87.79
17373;BME280;8803;48.116;11.590;2024-03-08T08:11:55;95214.84;;;4.28;85.96
17373;BME280;8803;48.116;11.590;2024-03-08T08:16:15;95212.57;;;4.47;85.53
17373;BME280;8803;48.116;11.590;2024-03-08T08:20:37;95214.59;;;4.25;85.81
17373;BME280;8803;48.116;11.590;2024-03-08T08:25:00;95217.55;;;4.21;86.11
17373;BME280;8803;48.116;11.590;2024-03-08T08:29:19;95218.11;;;4.13;86.69
17373;BME280;8803;48.116;11.590;2024-03-08T08:31:25;95217.81;;;4.23;86.07
17373;BME280;8803;48.116;11.590;2024-03-08T08:35:47;95202.14;;;4.27;85.49
17373;BME280;8803;48.116;11.590;2024-03-08T08:40:14;95200.52;;;4.55;84.68
17373;BME280;8803;48.116;11.590;2024-03-08T08:44:36;95192.34;;;4.76;83.82
17373;BME280;8803;48.116;11.590;2024-03-08T08:48:55;95179.47;;;4.37;85.05
17373;BME280;8803;48.116;11.590;2024-03-08T08:53:20;95181.19;;;4.26;85.99
17373;BME280;8803;48.116;11.590;2024-03-08T08:55:27;95175.36;;;4.57;84.78
17373;BME280;8803;48.116;11.590;2024-03-08T08:59:46;95169.26;;;4.86;83.89
17373;BME280;8803;48.116;11.590;2024-03-08T09:04:06;95165.95;;;5.00;83.72
17373;BME280;8803;48.116;11.590;2024-03-08T09:08:28;95167.22;;;4.89;83.16
17373;BME280;8803;48.116;11.590;2024-03-08T09:12:48;95160.41;;;4.98;82.61
17373;BME280;8803;48.116;11.590;2024-03-08T09:17:09;95165.59;;;4.75;83.04
17373;BME280;8803;48.116;11.590;2024-03-08T09:21:28;95153.05;;;4.79;83.37
17373;BME280;8803;48.116;11.590;2024-03-08T09:25:50;95148.70;;;5.18;81.94
17373;BME280;8803;48.116;11.590;2024-03-08T09:30:15;95136.02;;;5.45;80.80
17373;BME280;8803;48.116;11.590;2024-03-08T09:34:33;95133.03;;;5.50;79.20
17373;BME280;8803;48.116;11.590;2024-03-08T09:38:51;95135.55;;;5.46;79.04
17373;BME280;8803;48.116;11.590;2024-03-08T09:43:14;95130.52;;;5.65;79.35
17373;BME280;8803;48.116;11.590;2024-03-08T09:45:24;95133.50;;;5.77;78.77
17373;BME280;8803;48.116;11.590;2024-03-08T09:49:45;95113.70;;;5.94;77.37
17373;BME280;8803;48.116;11.590;2024-03-08T09:54:07;95116.57;;;6.07;76.96
17373;BME280;8803;48.116;11.590;2024-03-08T09:58:26;95116.89;;;6.19;76.27
17373;BME280;8803;48.116;11.590;2024-03-08T10:02:59;95112.67;;;6.28;76.50
17373;BME280;8803;48.116;11.590;2024-03-08T10:07:22;95123.53;;;6.14;76.47
17373;BME280;8803;48.116;11.590;2024-03-08T10:11:43;95113.25;;;6.31;75.58
17373;BME280;8803;48.116;11.590;2024-03-08T10:16:05;95104.03;;;6.52;75.33
17373;BME280;8803;48.116;11.590;2024-03-08T10:18:12;95107.25;;;6.61;73.77
17373;BME280;8803;48.116;11.590;2024-03-08T10:22:33;95095.55;;;6.75;73.96
17373;BME280;8803;48.116;11.590;2024-03-08T10:26:59;95094.66;;;6.80;73.87
17373;BME280;8803;48.116;11.590;2024-03-08T10:31:24;95079.77;;;6.79;72.84
17373;BME280;8803;48.116;11.590;2024-03-08T10:35:42;95082.12;;;6.87;72.55
17373;BME280;8803;48.116;11.590;2024-03-08T10:40:04;95071.12;;;6.97;72.66
17373;BME280;8803;48.116;11.590;2024-03-08T10:44:47;95068.33;;;6.99;72.57
17373;BME280;8803;48.116;11.590;2024-03-08T10:47:00;95078.34;;;6.95;72.14
17373;BME280;8803;48.116;11.590;2024-03-08T10:51:28;95064.04;;;6.92;71.95
17373;BME280;8803;48.116;11.590;2024-03-08T10:55:46;95064.13;;;6.81;71.96
17373;BME280;8803;48.116;11.590;2024-03-08T11:00:17;95071.55;;;6.87;72.02
17373;BME280;8803;48.116;11.590;2024-03-08T11:04:41;95054.73;;;7.18;71.46
17373;BME280;8803;48.116;11.590;2024-03-08T11:08:58;95056.41;;;7.04;70.73
17373;BME280;8803;48.116;11.590;2024-03-08T11:11:04;95062.77;;;6.87;71.13
17373;BME280;8803;48.116;11.590;2024-03-08T11:15:48;95039.95;;;7.16;70.54
17373;BME280;8803;48.116;11.590;2024-03-08T11:20:12;95040.20;;;7.28;70.54
17373;BME280;8803;48.116;11.590;2024-03-08T11:22:27;95023.51;;;7.28;70.88
17373;BME280;8803;48.116;11.590;2024-03-08T11:26:58;95016.16;;;7.26;70.41
17373;BME280;8803;48.116;11.590;2024-03-08T11:31:52;95022.34;;;7.51;70.35
17373;BME280;8803;48.116;11.590;2024-03-08T11:36:14;95009.89;;;7.66;69.25
17373;BME280;8803;48.116;11.590;2024-03-08T11:40:34;95003.09;;;7.73;68.84
17373;BME280;8803;48.116;11.590;2024-03-08T11:44:54;95007.22;;;7.81;68.48
17373;BME280;8803;48.116;11.590;2024-03-08T11:49:13;95001.15;;;7.75;67.81
17373;BME280;8803;48.116;11.590;2024-03-08T11:53:30;95006.47;;;7.60;68.66
17373;BME280;8803;48.116;11.590;2024-03-08T11:57:48;94999.56;;;7.97;67.86
17373;BME280;8803;48.116;11.590;2024-03-08T12:04:26;94990.55;;;8.29;65.84
17373;BME280;8803;48.116;11.590;2024-03-08T12:08:50;94980.07;;;8.18;66.75
17373;BME280;8803;48.116;11.590;2024-03-08T12:10:57;94983.30;;;7.87;66.77
17373;BME280;8803;48.116;11.590;2024-03-08T12:15:19;94978.02;;;8.06;67.38
17373;BME280;8803;48.116;11.590;2024-03-08T12:19:37;94965.11;;;7.97;68.23
17373;BME280;8803;48.116;11.590;2024-03-08T12:26:26;94963.52;;;8.10;66.81
17373;BME280;8803;48.116;11.590;2024-03-08T12:30:50;94945.72;;;8.16;67.36
17373;BME280;8803;48.116;11.590;2024-03-08T12:35:12;94946.61;;;8.26;66.48
17373;BME280;8803;48.116;11.590;2024-03-08T12:39:33;94949.45;;;8.38;65.53
17373;BME280;8803;48.116;11.590;2024-03-08T12:46:11;94932.61;;;8.53;65.24
17373;BME280;8803;48.116;11.590;2024-03-08T12:50:31;94923.17;;;8.54;65.22
17373;BME280;8803;48.116;11.590;2024-03-08T12:54:49;94911.24;;;8.78;64.37
17373;BME280;8803;48.116;11.590;2024-03-08T12:56:55;94921.84;;;8.64;64.18
17373;BME280;8803;48.116;11.590;2024-03-08T13:01:17;94928.33;;;8.65;62.81
17373;BME280;8803;48.116;11.590;2024-03-08T13:03:22;94908.64;;;8.58;62.40
17373;BME280;8803;48.116;11.590;2024-03-08T13:07:42;94909.31;;;8.47;63.47
17373;BME280;8803;48.116;11.590;2024-03-08T13:12:06;94899.30;;;8.54;63.18
17373;BME280;8803;48.116;11.590;2024-03-08T13:16:27;94891.02;;;8.67;63.07
17373;BME280;8803;48.116;11.590;2024-03-08T13:20:48;94896.42;;;8.85;63.03
17373;BME280;8803;48.116;11.590;2024-03-08T13:25:12;94893.23;;;8.81;61.18
17373;BME280;8803;48.116;11.590;2024-03-08T13:29:30;94881.46;;;8.70;62.42
17373;BME280;8803;48.116;11.590;2024-03-08T13:33:52;94877.53;;;8.74;61.63
17373;BME280;8803;48.116;11.590;2024-03-08T13:38:16;94865.72;;;8.96;61.74
17373;BME280;8803;48.116;11.590;2024-03-08T13:42:38;94860.60;;;9.12;61.30
17373;BME280;8803;48.116;11.590;2024-03-08T13:47:03;94850.52;;;9.29;61.21
17373;BME280;8803;48.116;11.590;2024-03-08T13:51:22;94850.88;;;9.47;60.96
17373;BME280;8803;48.116;11.590;2024-03-08T13:55:43;94845.97;;;9.39;60.87
17373;BME280;8803;48.116;11.590;2024-03-08T14:00:02;94837.59;;;9.47;60.67
17373;BME280;8803;48.116;11.590;2024-03-08T14:04:25;94839.32;;;9.52;60.75
17373;BME280;8803;48.116;11.590;2024-03-08T14:08:46;94828.16;;;9.67;60.82
17373;BME280;8803;48.116;11.590;2024-03-08T14:13:07;94824.75;;;9.57;60.48
17373;BME280;8803;48.116;11.590;2024-03-08T14:17:29;94825.05;;;9.71;60.24
17373;BME280;8803;48.116;11.590;2024-03-08T14:21:49;94815.03;;;9.34;60.42
17373;BME280;8803;48.116;11.590;2024-03-08T14:26:13;94813.16;;;9.44;60.61
17373;BME280;8803;48.116;11.590;2024-03-08T14:30:33;94806.88;;;9.49;60.58
17373;BME280;8803;48.116;11.590;2024-03-08T14:34:54;94794.09;;;9.66;60.14
17373;BME280;8803;48.116;11.590;2024-03-08T14:39:15;94791.11;;;9.65;59.86
17373;BME280;8803;48.116;11.590;2024-03-08T14:43:37;94784.17;;;9.50;60.42
17373;BME280;8803;48.116;11.590;2024-03-08T14:47:59;94779.64;;;9.65;60.20
17373;BME280;8803;48.116;11.590;2024-03-08T14:52:23;94783.79;;;9.63;59.98
17373;BME280;8803;48.116;11.590;2024-03-08T14:56:44;94793.03;;;9.77;59.85
17373;BME280;8803;48.116;11.590;2024-03-08T15:01:05;94783.62;;;9.65;59.21
17373;BME280;8803;48.116;11.590;2024-03-08T15:05:28;94784.02;;;9.52;59.64
17373;BME280;8803;48.116;11.590;2024-03-08T15:09:49;94771.88;;;9.36;60.26
17373;BME280;8803;48.116;11.590;2024-03-08T15:14:15;94767.64;;;9.43;60.22
17373;BME280;8803;48.116;11.590;2024-03-08T15:18:37;94764.02;;;9.44;59.93
17373;BME280;8803;48.116;11.590;2024-03-08T15:22:56;94762.66;;;9.62;59.74
17373;BME280;8803;48.116;11.590;2024-03-08T15:27:16;94756.41;;;9.67;59.41
17373;BME280;8803;48.116;11.590;2024-03-08T15:31:36;94767.36;;;9.46;59.31
17373;BME280;8803;48.116;11.590;2024-03-08T15:35:57;94746.03;;;9.60;58.84
17373;BME280;8803;48.116;11.590;2024-03-08T15:40:18;94741.66;;;9.50;59.24
17373;BME280;8803;48.116;11.590;2024-03-08T15:44:38;94758.41;;;9.51;59.32
17373;BME280;8803;48.116;11.590;2024-03-08T15:49:00;94741.37;;;9.58;59.61
17373;BME280;8803;48.116;11.590;2024-03-08T15:53:23;94744.19;;;9.56;59.17
17373;BME280;8803;48.116;11.590;2024-03-08T15:55:30;94753.55;;;9.46;59.39
17373;BME280;8803;48.116;11.590;2024-03-08T15:57:38;94750.80;;;9.34;59.26
17373;BME280;8803;48.116;11.590;2024-03-08T16:01:56;94749.55;;;9.25;60.28
17373;BME280;8803;48.116;11.590;2024-03-08T16:06:14;94742.47;;;9.29;60.28
17373;BME280;8803;48.116;11.590;2024-03-08T16:10:34;94740.74;;;9.24;60.31
17373;BME280;8803;48.116;11.590;2024-03-08T16:12:40;94741.73;;;8.92;60.62
17373;BME280;8803;48.116;11.590;2024-03-08T16:17:01;94734.02;;;9.34;60.23
17373;BME280;8803;48.116;11.590;2024-03-08T16:21:17;94742.73;;;9.09;60.62
17373;BME280;8803;48.116;11.590;2024-03-08T16:25:34;94737.78;;;9.10;60.23
17373;BME280;8803;48.116;11.590;2024-03-08T16:29:54;94733.63;;;9.25;60.35
17373;BME280;8803;48.116;11.590;2024-03-08T16:34:11;94720.02;;;9.28;60.54
17373;BME280;8803;48.116;11.590;2024-03-08T16:38:33;94721.25;;;9.33;60.37
17373;BME280;8803;48.116;11.590;2024-03-08T16:42:54;94721.97;;;9.39;60.41
17373;BME280;8803;48.116;11.590;2024-03-08T16:47:14;94721.28;;;9.20;60.79
17373;BME280;8803;48.116;11.590;2024-03-08T16:49:20;94723.73;;;9.17;60.73
17373;BME280;8803;48.116;11.590;2024-03-08T16:53:42;94722.14;;;9.07;61.72
17373;BME280;8803;48.116;11.590;2024-03-08T16:58:01;94706.20;;;9.07;62.04
17373;BME280;8803;48.116;11.590;2024-03-08T17:02:32;94704.66;;;9.18;61.82
17373;BME280;8803;48.116;11.590;2024-03-08T17:06:53;94694.84;;;9.14;62.29
17373;BME280;8803;48.116;11.590;2024-03-08T17:11:16;94691.73;;;9.01;63.34
17373;BME280;8803;48.116;11.590;2024-03-08T17:15:24;94692.89;;;9.03;62.91
17373;BME280;8803;48.116;11.590;2024-03-08T17:19:41;94693.03;;;9.15;62.88
17373;BME280;8803;48.116;11.590;2024-03-08T17:24:00;94691.52;;;9.12;63.17
17373;BME280;8803;48.116;11.590;2024-03-08T17:28:21;94690.89;;;9.01;64.15
17373;BME280;8803;48.116;11.590;2024-03-08T17:37:14;94682.95;;;9.05;64.01
17373;BME280;8803;48.116;11.590;2024-03-08T17:41:34;94678.67;;;8.90;65.39
17373;BME280;8803;48.116;11.590;2024-03-08T17:45:54;94681.36;;;8.94;65.14
17373;BME280;8803;48.116;11.590;2024-03-08T17:48:06;94684.47;;;8.90;65.32
17373;BME280;8803;48.116;11.590;2024-03-08T17:52:30;94678.31;;;8.85;65.72
17373;BME280;8803;48.116;11.590;2024-03-08T17:56:49;94674.85;;;8.89;66.00
17373;BME280;8803;48.116;11.590;2024-03-08T18:01:08;94666.73;;;8.72;67.20
17373;BME280;8803;48.116;11.590;2024-03-08T18:05:28;94668.02;;;8.68;67.72
17373;BME280;8803;48.116;11.590;2024-03-08T18:09:53;94677.70;;;8.46;69.30
17373;BME280;8803;48.116;11.590;2024-03-08T18:14:12;94665.66;;;8.65;68.50
17373;BME280;8803;48.116;11.590;2024-03-08T18:18:35;94666.02;;;8.53;69.37
17373;BME280;8803;48.116;11.590;2024-03-08T18:22:56;94654.36;;;8.50;69.77
17373;BME280;8803;48.116;11.590;2024-03-08T18:27:14;94642.42;;;8.50;69.87
17373;BME280;8803;48.116;11.590;2024-03-08T18:31:35;94645.59;;;8.49;70.31
17373;BME280;8803;48.116;11.590;2024-03-08T18:35:53;94635.23;;;8.42;70.76
17373;BME280;8803;48.116;11.590;2024-03-08T18:40:12;94637.20;;;8.40;70.62
17373;BME280;8803;48.116;11.590;2024-03-08T18:44:33;94628.52;;;8.34;71.31
17373;BME280;8803;48.116;11.590;2024-03-08T18:48:52;94627.43;;;8.27;71.49
17373;BME280;8803;48.116;11.590;2024-03-08T18:53:14;94617.39;;;8.21;71.61
17373;BME280;8803;48.116;11.590;2024-03-08T18:57:32;94623.56;;;8.12;72.17
17373;BME280;8803;48.116;11.590;2024-03-08T19:01:51;94614.61;;;8.09;72.28
17373;BME280;8803;48.116;11.590;2024-03-08T19:06:09;94617.28;;;7.99;73.01
17373;BME280;8803;48.116;11.590;2024-03-08T19:10:34;94617.23;;;7.95;73.04
17373;BME280;8803;48.116;11.590;2024-03-08T19:14:54;94610.41;;;7.93;73.06
17373;BME280;8803;48.116;11.590;2024-03-08T19:19:13;94608.34;;;7.87;73.64
17373;BME280;8803;48.116;11.590;2024-03-08T19:23:31;94599.66;;;7.81;74.03
17373;BME280;8803;48.116;11.590;2024-03-08T19:27:53;94599.03;;;7.83;73.37
17373;BME280;8803;48.116;11.590;2024-03-08T19:32:13;94589.17;;;7.75;73.86
17373;BME280;8803;48.116;11.590;2024-03-08T19:36:34;94582.45;;;7.81;73.60
17373;BME280;8803;48.116;11.590;2024-03-08T19:40:54;94588.82;;;7.61;74.71
17373;BME280;8803;48.116;11.590;2024-03-08T19:45:13;94585.98;;;7.49;75.26
17373;BME280;8803;48.116;11.590;2024-03-08T19:49:35;94592.34;;;6.96;78.22
17373;BME280;8803;48.116;11.590;2024-03-08T19:53:53;94585.66;;;7.25;76.71
17373;BME280;8803;48.116;11.590;2024-03-08T19:58:11;94579.67;;;7.46;75.38
17373;BME280;8803;48.116;11.590;2024-03-08T20:02:33;94577.67;;;7.34;76.04
17373;BME280;8803;48.116;11.590;2024-03-08T20:06:50;94580.78;;;7.30;75.95
17373;BME280;8803;48.116;11.590;2024-03-08T20:11:07;94583.16;;;7.23;76.45
17373;BME280;8803;48.116;11.590;2024-03-08T20:15:29;94589.66;;;7.05;77.17
17373;BME280;8803;48.116;11.590;2024-03-08T20:19:48;94581.84;;;6.81;78.70
17373;BME280;8803;48.116;11.590;2024-03-08T20:24:08;94584.52;;;6.94;78.15
17373;BME280;8803;48.116;11.590;2024-03-08T20:28:28;94573.52;;;7.08;77.00
17373;BME280;8803;48.116;11.590;2024-03-08T20:32:48;94574.20;;;7.10;76.55
17373;BME280;8803;48.116;11.590;2024-03-08T20:37:07;94569.94;;;7.13;76.77
17373;BME280;8803;48.116;11.590;2024-03-08T20:41:26;94569.98;;;7.27;75.62
17373;BME280;8803;48.116;11.590;2024-03-08T20:45:43;94569.55;;;6.99;76.64
17373;BME280;8803;48.116;11.590;2024-03-08T20:50:06;94575.53;;;7.01;76.84
17373;BME280;8803;48.116;11.590;2024-03-08T20:54:25;94571.95;;;6.73;77.99
17373;BME280;8803;48.116;11.590;2024-03-08T20:58:48;94563.77;;;6.90;77.31
17373;BME280;8803;48.116;11.590;2024-03-08T21:03:13;94550.39;;;7.01;76.56
17373;BME280;8803;48.116;11.590;2024-03-08T21:07:36;94541.50;;;7.02;75.97
17373;BME280;8803;48.116;11.590;2024-03-08T21:11:59;94546.91;;;7.00;76.05
17373;BME280;8803;48.116;11.590;2024-03-08T21:16:21;94546.84;;;6.96;76.35
17373;BME280;8803;48.116;11.590;2024-03-08T21:20:40;94538.05;;;6.92;76.56
17373;BME280;8803;48.116;11.590;2024-03-08T21:24:58;94535.40;;;6.82;76.80
17373;BME280;8803;48.116;11.590;2024-03-08T21:29:21;94547.80;;;6.63;76.88
17373;BME280;8803;48.116;11.590;2024-03-08T21:33:40;94547.14;;;6.22;79.07
17373;BME280;8803;48.116;11.590;2024-03-08T21:38:00;94536.26;;;6.06;80.62
17373;BME280;8803;48.116;11.590;2024-03-08T21:42:22;94524.47;;;6.39;79.13
17373;BME280;8803;48.116;11.590;2024-03-08T21:46:42;94526.13;;;6.50;78.20
17373;BME280;8803;48.116;11.590;2024-03-08T21:51:06;94525.89;;;6.57;77.59
17373;BME280;8803;48.116;11.590;2024-03-08T21:55:25;94528.13;;;6.23;79.26
17373;BME280;8803;48.116;11.590;2024-03-08T21:57:32;94535.08;;;6.14;79.34
17373;BME280;8803;48.116;11.590;2024-03-08T22:01:51;94531.23;;;5.94;80.81
17373;BME280;8803;48.116;11.590;2024-03-08T22:06:12;94535.05;;;5.86;81.09